Time;durP1;ratioP1;P1;durP2;ratioP2;P2;SDS_P1;SDS_P2;PMS_P1;PMS_P2;Temp;Humidity;BMP_temperature;BMP_pressure;BME280_temperature;BME280_humidity;BME280_pressure;Samples;Min_cycle;Max_cycle;Signal;HPM_P1;HPM_P2
2023/08/11 00:01:18;;;;;;;6.53;5.73;;;23.10;96.10;;;;;;5032923;28;20477;-51
2023/08/11 00:03:45;;;;;;;6.33;5.70;;;23.00;96.00;;;;;;5031705;28;20465;-50
2023/08/11 00:06:13;;;;;;;6.40;5.90;;;23.00;96.00;;;;;;5032946;28;20925;-50
2023/08/11 00:08:42;;;;;;;6.30;5.80;;;23.00;96.00;;;;;;5032778;28;20445;-51
2023/08/11 00:11:11;;;;;;;5.57;5.23;;;23.00;96.00;;;;;;5032524;28;20477;-53
2023/08/11 00:13:38;;;;;;;7.13;4.87;;;23.00;96.00;;;;;;5031878;28;20475;-54
2023/08/11 00:16:05;;;;;;;5.60;5.27;;;23.00;96.10;;;;;;5015793;28;20925;-51
2023/08/11 00:18:32;;;;;;;6.13;5.53;;;23.00;96.10;;;;;;5032687;28;20473;-50
2023/08/11 00:21:00;;;;;;;6.03;4.57;;;23.00;96.10;;;;;;5032268;28;20965;-50
2023/08/11 00:23:27;;;;;;;5.00;4.70;;;23.00;96.20;;;;;;5032398;28;20471;-51
2023/08/11 00:25:55;;;;;;;5.20;4.80;;;23.00;96.20;;;;;;5024034;28;20487;-51
2023/08/11 00:28:22;;;;;;;5.10;4.70;;;23.00;96.20;;;;;;5032396;28;20496;-51
2023/08/11 00:30:50;;;;;;;4.93;4.63;;;23.00;96.20;;;;;;5032105;28;20483;-53
2023/08/11 00:33:18;;;;;;;5.43;4.93;;;23.00;96.20;;;;;;5026289;28;20485;-49
2023/08/11 00:35:45;;;;;;;4.23;3.93;;;23.00;96.20;;;;;;5032226;28;20536;-50
2023/08/11 00:38:12;;;;;;;4.63;4.30;;;22.90;96.20;;;;;;5032354;28;20483;-50
2023/08/11 00:40:39;;;;;;;5.43;4.50;;;22.90;96.20;;;;;;5032095;28;20536;-49
2023/08/11 00:43:07;;;;;;;4.70;4.30;;;22.90;96.20;;;;;;5010592;28;20548;-50
2023/08/11 00:45:34;;;;;;;4.33;4.03;;;22.90;96.20;;;;;;5032209;28;20472;-50
2023/08/11 00:48:01;;;;;;;4.60;4.30;;;22.90;96.30;;;;;;5031952;28;20819;-51
2023/08/11 00:50:28;;;;;;;4.00;3.73;;;22.90;96.30;;;;;;5032073;28;20952;-50
2023/08/11 00:53:00;;;;;;;4.30;4.00;;;22.90;96.30;;;;;;5026138;28;20521;-50
2023/08/11 00:55:28;;;;;;;4.53;4.23;;;22.90;96.30;;;;;;5032029;28;20538;-50
2023/08/11 00:57:55;;;;;;;4.13;3.87;;;22.90;96.30;;;;;;5031822;28;20944;-50
2023/08/11 01:00:24;;;;;;;4.53;4.20;;;22.90;96.40;;;;;;5031824;28;20531;-50
2023/08/11 01:02:51;;;;;;;3.70;3.50;;;22.90;96.40;;;;;;5026104;28;20476;-52
2023/08/11 01:05:20;;;;;;;3.93;3.63;;;22.90;96.40;;;;;;5031961;28;21134;-50
2023/08/11 01:07:57;;;;;;;4.10;3.80;;;22.90;96.30;;;;;;5031641;28;20445;-51
2023/08/11 01:10:45;;;;;;;4.10;3.80;;;22.90;96.40;;;;;;5031781;28;20469;-50
2023/08/11 01:13:17;;;;;;;4.13;3.83;;;22.90;96.30;;;;;;5011981;28;20489;-53
2023/08/11 01:15:52;;;;;;;3.93;3.73;;;22.90;96.40;;;;;;5031489;28;20513;-51
2023/08/11 01:18:20;;;;;;;3.97;3.77;;;22.90;96.30;;;;;;5031626;28;20483;-52
2023/08/11 01:20:53;;;;;;;4.20;3.87;;;22.90;96.30;;;;;;5031235;28;20480;-52
2023/08/11 01:23:22;;;;;;;3.43;3.10;;;22.80;96.30;;;;;;5026582;28;21012;-52
2023/08/11 01:25:50;;;;;;;5.13;3.80;;;22.80;96.30;;;;;;5030962;28;20557;-51
2023/08/11 01:28:17;;;;;;;3.90;3.70;;;22.90;96.40;;;;;;5028203;28;20501;-52
2023/08/11 01:30:44;;;;;;;3.83;3.53;;;22.90;96.70;;;;;;5028187;28;20472;-52
2023/08/11 01:33:11;;;;;;;2.67;2.50;;;22.80;96.40;;;;;;5026392;28;20516;-51
2023/08/11 01:35:38;;;;;;;4.60;3.07;;;22.80;96.30;;;;;;5031507;28;20445;-52
2023/08/11 01:38:05;;;;;;;3.80;3.60;;;22.80;96.40;;;;;;5031159;28;20868;-50
2023/08/11 01:40:34;;;;;;;3.03;2.83;;;22.90;96.40;;;;;;5031287;28;20517;-50
2023/08/11 01:43:05;;;;;;;3.13;2.93;;;22.80;96.40;;;;;;5026439;28;20476;-52
2023/08/11 01:45:33;;;;;;;3.93;3.63;;;22.80;96.40;;;;;;5031345;28;20456;-51
2023/08/11 01:48:01;;;;;;;3.43;3.20;;;22.90;96.50;;;;;;5031115;28;20456;-50
2023/08/11 01:50:29;;;;;;;3.47;3.27;;;22.90;96.60;;;;;;5031095;28;21003;-52
2023/08/11 01:52:56;;;;;;;2.73;2.57;;;22.80;96.50;;;;;;5027304;28;20524;-51
2023/08/11 01:55:24;;;;;;;3.17;2.97;;;22.80;96.50;;;;;;5031081;28;20441;-54
2023/08/11 01:57:53;;;;;;;3.90;3.60;;;22.80;96.50;;;;;;5030971;28;20491;-50
2023/08/11 02:00:20;;;;;;;3.33;3.13;;;22.80;96.50;;;;;;5026158;28;20536;-50
2023/08/11 02:02:48;;;;;;;2.80;2.60;;;22.80;96.60;;;;;;5027402;28;20868;-51
2023/08/11 02:05:16;;;;;;;3.30;3.10;;;22.80;96.60;;;;;;5031087;28;20495;-50
2023/08/11 02:07:44;;;;;;;3.57;3.33;;;22.80;96.50;;;;;;5030863;28;20451;-51
2023/08/11 02:10:13;;;;;;;2.77;2.67;;;22.80;96.60;;;;;;5030930;28;20453;-52
2023/08/11 02:12:40;;;;;;;3.43;3.20;;;22.80;96.60;;;;;;5027892;28;20967;-52
2023/08/11 02:15:10;;;;;;;2.63;2.43;;;22.80;96.50;;;;;;5030828;28;20465;-50
2023/08/11 02:17:37;;;;;;;5.07;4.60;;;22.70;96.60;;;;;;5030997;28;20452;-50
2023/08/11 02:20:17;;;;;;;2.37;2.23;;;22.70;96.40;;;;;;5030809;28;20523;-49
2023/08/11 02:22:44;;;;;;;2.70;2.60;;;22.70;96.50;;;;;;5027639;28;20453;-51
2023/08/11 02:25:10;;;;;;;3.00;2.70;;;22.70;96.50;;;;;;5030801;28;20469;-50
2023/08/11 02:27:38;;;;;;;2.50;2.40;;;22.70;96.50;;;;;;5030906;28;20472;-52
2023/08/11 02:30:06;;;;;;;2.87;2.67;;;22.70;96.50;;;;;;5030737;28;20441;-52
2023/08/11 02:32:34;;;;;;;3.40;3.20;;;22.80;96.50;;;;;;5029132;28;20477;-51
2023/08/11 02:35:01;;;;;;;2.70;2.50;;;22.70;96.50;;;;;;5029778;28;20473;-50
2023/08/11 02:37:29;;;;;;;2.53;2.33;;;22.70;96.50;;;;;;5030771;28;20480;-49
2023/08/11 02:39:56;;;;;;;2.87;2.57;;;22.80;96.50;;;;;;5034024;28;20444;-50
2023/08/11 02:42:24;;;;;;;3.93;2.60;;;22.80;96.50;;;;;;5026378;28;20449;-51
2023/08/11 02:44:51;;;;;;;2.50;2.40;;;22.70;96.50;;;;;;5034332;28;20449;-53
2023/08/11 02:47:18;;;;;;;2.40;2.30;;;22.70;96.40;;;;;;5034347;28;20476;-50
2023/08/11 02:49:46;;;;;;;3.00;2.80;;;22.70;96.40;;;;;;5034262;28;20483;-51
2023/08/11 02:52:13;;;;;;;2.23;2.13;;;22.70;96.50;;;;;;5026263;28;20954;-54
2023/08/11 02:54:40;;;;;;;2.57;2.47;;;22.80;96.50;;;;;;5034166;28;20463;-51
2023/08/11 02:57:07;;;;;;;2.83;2.63;;;22.70;96.40;;;;;;5034135;28;20971;-51
2023/08/11 02:59:34;;;;;;;3.00;2.80;;;22.70;96.50;;;;;;5034101;28;20479;-52
2023/08/11 03:02:02;;;;;;;2.60;2.40;;;22.70;96.50;;;;;;5027841;28;20491;-52
2023/08/11 03:04:29;;;;;;;2.10;2.00;;;22.70;96.50;;;;;;5033870;28;20480;-51
2023/08/11 03:06:57;;;;;;;2.00;1.90;;;22.70;96.50;;;;;;5033987;28;20447;-53
2023/08/11 03:09:24;;;;;;;2.30;2.20;;;22.70;96.40;;;;;;5034131;28;20483;-54
2023/08/11 03:11:51;;;;;;;3.63;3.43;;;22.70;96.40;;;;;;5027950;28;20448;-53
2023/08/11 03:14:18;;;;;;;2.87;2.70;;;22.70;96.40;;;;;;5033810;28;20481;-50
2023/08/11 03:16:45;;;;;;;2.67;2.50;;;22.70;96.40;;;;;;5033992;28;20489;-52
2023/08/11 03:19:12;;;;;;;3.03;2.83;;;22.70;96.40;;;;;;5018122;28;20937;-52
2023/08/11 03:21:39;;;;;;;2.57;2.33;;;22.70;96.40;;;;;;5028127;28;20532;-51
2023/08/11 03:24:07;;;;;;;3.10;2.90;;;22.70;96.40;;;;;;5033564;28;20465;-54
2023/08/11 03:26:35;;;;;;;2.73;2.47;;;22.70;96.40;;;;;;5033642;28;20469;-50
2023/08/11 03:29:02;;;;;;;2.00;1.90;;;22.70;96.40;;;;;;5033401;28;20533;-52
2023/08/11 03:31:29;;;;;;;2.67;2.57;;;22.60;96.40;;;;;;5028200;28;20481;-51
2023/08/11 03:33:56;;;;;;;2.10;2.00;;;22.70;96.40;;;;;;5033245;28;20567;-51
2023/08/11 03:36:23;;;;;;;2.70;2.50;;;22.70;96.40;;;;;;5033601;28;20473;-52
2023/08/11 03:38:50;;;;;;;3.10;2.90;;;22.70;96.40;;;;;;5033373;28;20445;-54
2023/08/11 03:41:19;;;;;;;2.40;2.30;;;22.60;96.30;;;;;;5028254;28;20536;-51
2023/08/11 03:43:46;;;;;;;2.87;2.70;;;22.70;96.40;;;;;;5033275;28;20472;-53
2023/08/11 03:46:13;;;;;;;2.53;2.40;;;22.60;96.30;;;;;;5017585;28;21017;-50
2023/08/11 03:48:40;;;;;;;2.47;2.27;;;22.60;96.30;;;;;;5031748;28;20441;-52
2023/08/11 03:51:07;;;;;;;2.77;2.57;;;22.60;96.30;;;;;;5032173;28;21007;-52
2023/08/11 03:53:36;;;;;;;3.27;2.97;;;22.60;96.30;;;;;;5032956;28;20488;-50
2023/08/11 03:56:07;;;;;;;1.93;1.83;;;22.60;96.30;;;;;;5033051;28;20456;-52
2023/08/11 03:58:36;;;;;;;2.70;2.50;;;22.60;96.30;;;;;;5033100;28;20929;-54
2023/08/11 04:01:04;;;;;;;3.03;2.50;;;22.60;96.30;;;;;;5031608;28;20453;-51
2023/08/11 04:03:31;;;;;;;3.23;3.03;;;22.60;96.30;;;;;;5032753;28;20461;-50
2023/08/11 04:05:58;;;;;;;2.07;1.97;;;22.60;96.40;;;;;;5033026;28;20475;-53
2023/08/11 04:08:26;;;;;;;2.60;2.40;;;22.60;96.70;;;;;;5025645;28;20484;-50
2023/08/11 04:10:53;;;;;;;2.87;2.67;;;22.60;97.10;;;;;;5024341;28;20477;-62
2023/08/11 04:13:20;;;;;;;3.10;2.90;;;22.70;98.00;;;;;;5022529;28;20996;-60
2023/08/11 04:15:49;;;;;;;6.20;2.70;;;22.70;98.90;;;;;;5032814;28;20460;-60
2023/08/11 04:18:16;;;;;;;4.60;2.90;;;22.70;99.00;;;;;;5017278;28;20442;-60
2023/08/11 04:20:43;;;;;;;2.83;2.63;;;22.70;99.00;;;;;;5031402;28;20480;-59
2023/08/11 04:23:09;;;;;;;2.40;2.20;;;22.70;99.10;;;;;;5021353;28;20874;-52
2023/08/11 04:25:36;;;;;;;2.57;2.47;;;22.70;98.70;;;;;;5027456;28;20484;-51
2023/08/11 04:28:04;;;;;;;3.00;2.80;;;22.80;98.70;;;;;;5032443;28;20461;-53
2023/08/11 04:30:32;;;;;;;2.47;2.37;;;22.80;98.20;;;;;;5032300;28;20529;-50
2023/08/11 04:33:00;;;;;;;2.73;2.50;;;22.80;98.00;;;;;;5015339;28;21059;-53
2023/08/11 04:35:27;;;;;;;7.07;3.73;;;22.80;97.60;;;;;;5032385;28;20473;-52
2023/08/11 04:37:54;;;;;;;7.17;3.50;;;22.90;97.80;;;;;;5032363;28;20472;-55
2023/08/11 04:40:22;;;;;;;9.73;3.00;;;22.90;97.90;;;;;;5032167;28;20451;-54
2023/08/11 04:42:49;;;;;;;11.00;4.20;;;22.90;98.50;;;;;;5024909;28;20473;-54
2023/08/11 04:45:16;;;;;;;7.70;3.10;;;22.90;98.90;;;;;;5028613;28;20481;-52
2023/08/11 04:47:43;;;;;;;8.20;3.37;;;23.00;99.90;;;;;;5032296;28;20469;-51
2023/08/11 04:50:12;;;;;;;8.20;4.60;;;23.00;99.90;;;;;;5032042;28;20885;-51
2023/08/11 04:52:39;;;;;;;6.87;3.97;;;23.00;99.90;;;;;;5031665;28;20448;-52
2023/08/11 04:55:07;;;;;;;4.60;3.10;;;23.00;99.90;;;;;;5031993;28;20520;-51
2023/08/11 04:57:34;;;;;;;14.30;4.10;;;23.00;99.90;;;;;;5031892;28;20963;-51
2023/08/11 05:00:01;;;;;;;5.07;2.77;;;22.90;99.90;;;;;;5031817;28;20438;-50
2023/08/11 05:02:28;;;;;;;3.67;2.70;;;22.90;99.70;;;;;;5030890;28;20438;-52
2023/08/11 05:04:55;;;;;;;4.40;3.10;;;22.90;99.60;;;;;;5032126;28;20433;-51
2023/08/11 05:07:23;;;;;;;7.73;3.53;;;22.90;99.50;;;;;;5031695;28;20480;-54
2023/08/11 05:09:50;;;;;;;3.10;2.80;;;22.90;99.40;;;;;;5031688;28;20496;-54
2023/08/11 05:12:17;;;;;;;6.53;3.53;;;22.90;99.40;;;;;;5031522;28;20588;-50
2023/08/11 05:14:44;;;;;;;3.37;3.00;;;22.80;99.30;;;;;;5031473;28;20567;-51
2023/08/11 05:17:11;;;;;;;4.23;3.00;;;22.90;99.30;;;;;;5031511;28;20434;-51
2023/08/11 05:19:38;;;;;;;2.50;2.40;;;22.80;99.30;;;;;;5031675;28;20869;-52
2023/08/11 05:22:05;;;;;;;3.30;2.60;;;22.80;99.30;;;;;;5031303;28;20875;-52
2023/08/11 05:24:33;;;;;;;3.00;2.80;;;22.80;99.30;;;;;;5031412;28;20894;-51
2023/08/11 05:27:00;;;;;;;5.10;2.90;;;22.80;99.20;;;;;;5031364;28;20472;-53
2023/08/11 05:29:27;;;;;;;3.00;2.77;;;22.70;99.00;;;;;;5031506;28;20469;-53
2023/08/11 05:31:54;;;;;;;2.47;2.33;;;22.80;99.10;;;;;;5031158;28;20488;-53
2023/08/11 05:34:21;;;;;;;2.87;2.57;;;22.70;99.10;;;;;;5031235;28;20513;-56
2023/08/11 05:36:48;;;;;;;2.83;2.27;;;22.80;99.10;;;;;;5031344;28;20816;-54
2023/08/11 05:39:15;;;;;;;3.23;2.60;;;22.80;99.00;;;;;;5031161;28;20822;-52
2023/08/11 05:41:43;;;;;;;2.93;2.73;;;22.70;98.90;;;;;;5031023;28;20476;-52
2023/08/11 05:44:10;;;;;;;3.33;2.57;;;22.70;98.90;;;;;;5031178;28;20552;-54
2023/08/11 05:46:37;;;;;;;3.07;2.77;;;22.70;98.90;;;;;;5031132;28;20476;-53
2023/08/11 05:49:04;;;;;;;3.30;3.10;;;22.70;98.90;;;;;;5031046;28;20484;-53
2023/08/11 05:51:31;;;;;;;2.20;2.10;;;22.70;98.80;;;;;;5031035;28;20500;-56
2023/08/11 05:53:57;;;;;;;3.77;2.40;;;22.70;98.80;;;;;;5030897;28;20580;-54
2023/08/11 05:56:24;;;;;;;2.77;2.50;;;22.70;98.70;;;;;;5031096;28;20495;-56
2023/08/11 05:58:52;;;;;;;3.47;2.33;;;22.70;98.70;;;;;;5031106;28;20472;-53
2023/08/11 06:01:19;;;;;;;2.60;2.40;;;22.60;98.60;;;;;;5015377;28;20473;-51
2023/08/11 06:03:46;;;;;;;2.37;2.10;;;22.60;98.60;;;;;;5030866;28;20544;-55
2023/08/11 06:06:13;;;;;;;2.77;2.57;;;22.60;98.60;;;;;;5030881;28;20925;-54
2023/08/11 06:08:40;;;;;;;2.60;2.40;;;22.60;98.60;;;;;;5030952;28;20437;-54
2023/08/11 06:11:07;;;;;;;2.43;2.30;;;22.60;98.60;;;;;;5030601;28;20485;-53
2023/08/11 06:13:34;;;;;;;3.20;2.90;;;22.60;98.50;;;;;;5033798;28;20512;-54
2023/08/11 06:16:02;;;;;;;2.67;2.50;;;22.60;98.50;;;;;;5035006;28;20524;-55
2023/08/11 06:18:29;;;;;;;2.77;2.27;;;22.60;98.40;;;;;;5034997;28;20480;-51
2023/08/11 06:20:56;;;;;;;3.73;2.60;;;22.60;98.60;;;;;;5034643;28;20590;-54
2023/08/11 06:23:23;;;;;;;2.20;2.10;;;22.60;98.50;;;;;;5034709;28;20464;-53
2023/08/11 06:25:50;;;;;;;2.27;2.10;;;22.60;98.50;;;;;;5034894;28;20437;-52
2023/08/11 06:28:17;;;;;;;2.50;2.00;;;22.60;98.50;;;;;;5034736;28;20936;-52
2023/08/11 06:30:44;;;;;;;2.87;2.67;;;22.60;98.50;;;;;;5034631;28;20473;-51
2023/08/11 06:33:12;;;;;;;2.50;2.30;;;22.60;98.50;;;;;;5034376;28;20972;-51
2023/08/11 06:35:39;;;;;;;2.60;2.50;;;22.60;98.40;;;;;;5034625;28;20492;-50
2023/08/11 06:38:06;;;;;;;2.53;2.33;;;22.60;98.40;;;;;;5034504;28;20506;-51
2023/08/11 06:40:34;;;;;;;5.30;2.80;;;22.60;98.40;;;;;;5034403;28;20476;-50
2023/08/11 06:43:01;;;;;;;3.03;2.50;;;22.60;98.30;;;;;;5034314;28;20560;-52
2023/08/11 06:45:28;;;;;;;2.20;2.03;;;22.60;98.30;;;;;;5034663;28;20789;-52
2023/08/11 06:47:55;;;;;;;2.40;2.23;;;22.60;98.20;;;;;;5034280;28;20948;-51
2023/08/11 06:50:23;;;;;;;2.40;2.20;;;22.60;98.30;;;;;;5034360;28;20476;-50
2023/08/11 06:52:51;;;;;;;2.03;1.93;;;22.60;98.20;;;;;;5034040;28;20987;-53
2023/08/11 06:55:18;;;;;;;2.30;2.20;;;22.60;98.20;;;;;;5034127;28;20563;-53
2023/08/11 06:57:45;;;;;;;2.10;2.00;;;22.60;98.20;;;;;;5034190;28;20468;-52
2023/08/11 07:00:13;;;;;;;2.47;1.90;;;22.60;98.20;;;;;;5034115;28;20468;-50
2023/08/11 07:02:39;;;;;;;2.33;2.13;;;22.60;98.20;;;;;;5033866;28;20473;-54
2023/08/11 07:05:07;;;;;;;3.83;2.43;;;22.60;98.20;;;;;;5034130;28;20476;-51
2023/08/11 07:07:35;;;;;;;3.20;2.10;;;22.60;98.10;;;;;;5034156;28;20477;-52
2023/08/11 07:10:03;;;;;;;3.07;2.87;;;22.60;98.20;;;;;;5033917;28;21012;-51
2023/08/11 07:12:30;;;;;;;2.43;2.33;;;22.60;98.10;;;;;;5033723;28;20844;-51
2023/08/11 07:14:56;;;;;;;4.57;2.47;;;22.60;98.00;;;;;;5033780;28;20918;-51
2023/08/11 07:17:24;;;;;;;2.50;2.13;;;22.60;98.20;;;;;;5033879;28;20441;-50
2023/08/11 07:19:51;;;;;;;1.90;1.80;;;22.50;98.00;;;;;;5033836;28;20441;-51
2023/08/11 07:22:18;;;;;;;2.67;2.47;;;22.50;97.90;;;;;;5033432;28;20503;-52
2023/08/11 07:24:46;;;;;;;2.17;2.03;;;22.60;97.90;;;;;;5033019;28;20507;-51
2023/08/11 07:27:13;;;;;;;2.47;2.37;;;22.50;97.90;;;;;;5033657;28;20891;-53
2023/08/11 07:29:40;;;;;;;2.60;2.40;;;22.60;97.90;;;;;;5033536;28;20712;-50
2023/08/11 07:32:07;;;;;;;2.63;2.53;;;22.60;97.80;;;;;;5033358;28;20473;-51
2023/08/11 07:34:35;;;;;;;1.70;1.60;;;22.50;97.90;;;;;;5033393;28;20591;-52
2023/08/11 07:37:02;;;;;;;1.90;1.80;;;22.60;97.90;;;;;;5033451;28;20441;-51
2023/08/11 07:39:30;;;;;;;2.60;2.03;;;22.60;98.00;;;;;;5033339;28;20472;-51
2023/08/11 07:42:02;;;;;;;1.87;1.77;;;22.60;97.90;;;;;;5033107;28;20472;-51
2023/08/11 07:44:30;;;;;;;2.30;2.20;;;22.60;97.90;;;;;;5033367;28;20982;-52
2023/08/11 07:46:57;;;;;;;2.17;2.00;;;22.60;98.00;;;;;;5033247;28;20441;-51
2023/08/11 07:49:24;;;;;;;3.00;2.70;;;22.60;97.90;;;;;;5033270;28;20491;-51
2023/08/11 07:51:52;;;;;;;1.97;1.87;;;22.60;98.00;;;;;;5033100;28;20877;-50
2023/08/11 07:54:19;;;;;;;2.83;2.17;;;22.50;98.00;;;;;;5032900;28;20575;-52
2023/08/11 07:56:46;;;;;;;1.87;1.77;;;22.60;98.00;;;;;;5033112;28;20465;-52
2023/08/11 07:59:15;;;;;;;4.03;2.30;;;22.60;98.00;;;;;;5032954;28;20473;-51
2023/08/11 08:01:42;;;;;;;2.00;1.90;;;22.60;98.00;;;;;;5032809;28;20447;-51
2023/08/11 08:04:10;;;;;;;1.80;1.70;;;22.60;98.00;;;;;;5032671;28;20491;-50
2023/08/11 08:06:45;;;;;;;2.03;1.93;;;22.60;98.00;;;;;;5032836;28;20445;-53
2023/08/11 08:09:12;;;;;;;3.93;1.97;;;22.60;98.00;;;;;;5032972;28;20452;-50
2023/08/11 08:11:39;;;;;;;2.10;2.00;;;22.60;98.00;;;;;;5032655;28;20443;-51
2023/08/11 08:14:06;;;;;;;4.40;2.00;;;22.60;97.90;;;;;;5032620;28;20535;-50
2023/08/11 08:16:34;;;;;;;2.20;1.80;;;22.60;98.00;;;;;;5032713;28;20473;-50
2023/08/11 08:19:01;;;;;;;1.97;1.87;;;22.60;98.00;;;;;;5032558;28;20860;-51
2023/08/11 08:21:28;;;;;;;2.63;2.50;;;22.60;98.00;;;;;;5032494;28;20441;-51
2023/08/11 08:23:55;;;;;;;3.33;2.23;;;22.60;98.00;;;;;;5032544;28;20497;-51
2023/08/11 08:26:22;;;;;;;2.07;1.80;;;22.60;98.00;;;;;;5032487;28;20486;-50
2023/08/11 08:28:49;;;;;;;3.63;2.37;;;22.60;98.10;;;;;;5032466;28;20872;-50
2023/08/11 08:31:16;;;;;;;1.87;1.77;;;22.60;98.10;;;;;;5032225;28;20483;-50
2023/08/11 08:33:44;;;;;;;2.40;2.13;;;22.60;98.00;;;;;;5032347;28;20546;-51
2023/08/11 08:36:11;;;;;;;1.77;1.60;;;22.60;98.10;;;;;;5031279;28;20488;-50
2023/08/11 08:38:38;;;;;;;2.27;2.00;;;22.60;98.10;;;;;;5032300;28;20476;-51
2023/08/11 08:41:09;;;;;;;2.17;2.07;;;22.70;98.10;;;;;;5032028;28;20911;-51
2023/08/11 08:43:36;;;;;;;2.27;2.17;;;22.70;98.10;;;;;;5032216;28;20493;-50
2023/08/11 08:46:04;;;;;;;2.37;2.17;;;22.70;98.10;;;;;;5032095;28;20475;-50
2023/08/11 08:48:38;;;;;;;1.80;1.57;;;22.70;98.20;;;;;;5032187;28;20520;-50
2023/08/11 08:51:08;;;;;;;2.10;2.00;;;22.70;98.10;;;;;;5031853;28;20700;-50
2023/08/11 08:53:35;;;;;;;2.30;2.20;;;22.60;98.10;;;;;;5032026;28;20519;-51
2023/08/11 08:56:04;;;;;;;2.03;1.93;;;22.60;98.20;;;;;;5031841;28;20481;-50
2023/08/11 08:58:31;;;;;;;4.20;2.67;;;22.70;98.20;;;;;;5032020;28;20441;-50
2023/08/11 09:01:01;;;;;;;2.40;2.30;;;22.70;98.10;;;;;;5031824;28;20465;-50
2023/08/11 09:03:28;;;;;;;2.60;2.17;;;22.70;98.20;;;;;;5016649;28;20534;-50
2023/08/11 09:05:55;;;;;;;2.40;2.20;;;22.70;98.20;;;;;;5031892;28;20769;-51
2023/08/11 09:08:24;;;;;;;2.03;1.93;;;22.70;98.10;;;;;;5031737;28;20604;-51
2023/08/11 09:10:51;;;;;;;1.70;1.60;;;22.70;98.10;;;;;;5031715;28;20484;-50
2023/08/11 09:13:18;;;;;;;1.80;1.70;;;22.70;98.10;;;;;;5031494;28;20469;-51
2023/08/11 09:15:46;;;;;;;2.10;1.83;;;22.70;98.20;;;;;;5031561;28;20515;-50
2023/08/11 09:18:16;;;;;;;2.30;2.20;;;22.70;98.20;;;;;;5031472;28;20472;-51
2023/08/11 09:20:46;;;;;;;3.63;2.17;;;22.70;98.10;;;;;;5031344;28;20437;-51
2023/08/11 09:23:13;;;;;;;4.83;4.57;;;22.70;98.20;;;;;;5031334;28;20519;-50
2023/08/11 09:25:41;;;;;;;2.30;2.13;;;22.70;98.20;;;;;;5031615;28;20465;-51
2023/08/11 09:28:09;;;;;;;2.07;1.97;;;22.70;98.20;;;;;;5031431;28;20445;-50
2023/08/11 09:30:36;;;;;;;2.30;2.20;;;22.70;98.20;;;;;;5031559;28;20441;-51
2023/08/11 09:33:04;;;;;;;2.43;2.20;;;22.70;98.20;;;;;;5031235;28;20485;-50
2023/08/11 09:35:31;;;;;;;2.33;2.13;;;22.70;98.20;;;;;;5031288;28;21053;-50
2023/08/11 09:37:58;;;;;;;2.10;1.70;;;22.80;98.30;;;;;;5031456;28;20465;-52
2023/08/11 09:40:25;;;;;;;2.10;2.00;;;22.70;98.20;;;;;;5031087;28;20465;-50
2023/08/11 09:42:56;;;;;;;1.90;1.80;;;22.70;98.20;;;;;;5030945;28;20993;-51
2023/08/11 09:45:23;;;;;;;3.73;2.80;;;22.70;98.30;;;;;;5031188;28;20929;-51
2023/08/11 09:47:51;;;;;;;6.20;2.47;;;22.80;98.30;;;;;;5030934;28;20479;-50
2023/08/11 09:50:18;;;;;;;2.50;2.30;;;22.70;98.30;;;;;;5031046;28;20473;-50
2023/08/11 09:52:45;;;;;;;2.63;2.47;;;22.70;98.30;;;;;;5030820;28;20945;-53
2023/08/11 09:55:13;;;;;;;2.20;2.10;;;22.70;98.30;;;;;;5030929;28;20559;-51
2023/08/11 09:57:42;;;;;;;2.10;2.00;;;22.80;98.30;;;;;;5031043;28;20507;-51
2023/08/11 10:00:12;;;;;;;2.20;2.10;;;22.80;98.40;;;;;;5030839;28;20441;-52
2023/08/11 10:02:46;;;;;;;2.60;2.47;;;22.80;98.40;;;;;;5030741;28;20469;-51
2023/08/11 10:05:14;;;;;;;2.07;1.97;;;22.80;98.50;;;;;;5030977;28;20476;-50
2023/08/11 10:07:44;;;;;;;2.30;2.20;;;22.80;98.50;;;;;;5030921;28;20484;-50
2023/08/11 10:10:14;;;;;;;3.07;2.60;;;22.80;98.50;;;;;;5030833;28;20834;-51
2023/08/11 10:12:46;;;;;;;2.50;2.40;;;22.80;98.50;;;;;;5030978;28;20440;-50
2023/08/11 10:15:18;;;;;;;2.03;1.93;;;22.80;98.40;;;;;;5030825;28;20571;-51
2023/08/11 10:17:46;;;;;;;2.47;2.10;;;22.80;98.40;;;;;;5030927;28;20487;-50
2023/08/11 10:20:13;;;;;;;2.77;2.57;;;22.80;98.40;;;;;;5030728;28;20522;-51
2023/08/11 10:22:41;;;;;;;1.87;1.77;;;22.90;98.50;;;;;;5030594;28;20472;-50
2023/08/11 10:25:09;;;;;;;2.03;1.93;;;22.90;98.50;;;;;;5030742;28;20472;-50
2023/08/11 10:27:38;;;;;;;2.20;2.10;;;22.80;98.40;;;;;;5030871;28;20473;-52
2023/08/11 10:30:08;;;;;;;2.60;2.40;;;22.80;98.40;;;;;;5030695;28;20469;-51
2023/08/11 10:32:36;;;;;;;2.77;2.57;;;22.80;98.50;;;;;;5030613;28;20443;-51
2023/08/11 10:35:07;;;;;;;2.23;2.13;;;22.80;98.40;;;;;;5030666;28;20530;-50
2023/08/11 10:37:35;;;;;;;2.30;2.20;;;22.90;98.50;;;;;;5030870;28;20868;-50
2023/08/11 10:40:04;;;;;;;3.60;2.50;;;22.90;98.50;;;;;;5030679;28;20475;-50
2023/08/11 10:42:31;;;;;;;2.93;2.73;;;22.90;98.50;;;;;;5015059;28;20520;-51
2023/08/11 10:45:08;;;;;;;2.83;2.63;;;22.90;98.50;;;;;;5030785;28;20977;-50
2023/08/11 10:47:38;;;;;;;3.43;3.13;;;22.90;98.50;;;;;;5016392;28;20469;-52
2023/08/11 10:50:09;;;;;;;4.17;2.60;;;22.90;98.50;;;;;;5030534;28;20456;-50
2023/08/11 10:52:36;;;;;;;2.30;2.20;;;22.90;98.40;;;;;;5030389;28;20450;-50
2023/08/11 10:55:03;;;;;;;3.00;2.13;;;22.90;98.40;;;;;;5030518;28;20564;-50
2023/08/11 10:57:31;;;;;;;2.30;2.20;;;22.90;98.40;;;;;;5014822;28;20465;-50
2023/08/11 10:59:58;;;;;;;3.03;2.60;;;22.90;98.40;;;;;;5032289;28;20437;-52
2023/08/11 11:02:25;;;;;;;2.50;2.40;;;22.90;98.40;;;;;;5033742;28;20933;-50
2023/08/11 11:04:54;;;;;;;4.00;2.27;;;23.00;98.50;;;;;;5034501;28;20487;-49
2023/08/11 11:07:23;;;;;;;2.27;2.17;;;23.00;98.60;;;;;;5034038;28;20451;-48
2023/08/11 11:09:51;;;;;;;3.03;2.83;;;23.00;98.60;;;;;;5033911;28;20971;-48
2023/08/11 11:12:18;;;;;;;2.60;2.50;;;23.00;98.60;;;;;;5033692;28;20445;-49
2023/08/11 11:14:45;;;;;;;2.70;2.37;;;23.00;98.60;;;;;;5033851;28;20843;-49
2023/08/11 11:17:13;;;;;;;3.10;2.90;;;23.00;98.50;;;;;;5033824;28;20465;-48
2023/08/11 11:19:39;;;;;;;3.30;3.00;;;23.10;98.50;;;;;;5033821;28;20816;-49
2023/08/11 11:22:08;;;;;;;2.90;2.80;;;23.00;98.50;;;;;;5033467;28;20476;-50
2023/08/11 11:24:35;;;;;;;2.83;2.60;;;23.00;98.40;;;;;;5033662;28;20540;-48
2023/08/11 11:27:03;;;;;;;2.83;2.53;;;23.00;98.50;;;;;;5033655;28;20465;-48
2023/08/11 11:29:31;;;;;;;3.03;2.90;;;23.10;98.60;;;;;;5017417;28;20445;-49
2023/08/11 11:32:06;;;;;;;2.93;2.70;;;23.10;98.50;;;;;;5033409;28;20456;-48
2023/08/11 11:34:35;;;;;;;3.03;2.73;;;23.10;98.50;;;;;;5017908;28;20460;-50
2023/08/11 11:37:03;;;;;;;3.20;3.00;;;23.10;98.40;;;;;;5033411;28;20477;-50
2023/08/11 11:39:32;;;;;;;2.40;2.20;;;23.10;98.40;;;;;;5033409;28;21001;-48
2023/08/11 11:42:07;;;;;;;2.03;1.93;;;23.10;98.40;;;;;;5033208;28;20959;-49
2023/08/11 11:44:35;;;;;;;3.00;2.50;;;23.10;98.30;;;;;;5017954;28;20463;-49
2023/08/11 11:47:02;;;;;;;3.23;3.13;;;23.20;98.30;;;;;;5033233;28;20945;-49
2023/08/11 11:49:32;;;;;;;3.57;2.63;;;23.20;98.30;;;;;;5033090;28;20469;-48
2023/08/11 11:51:59;;;;;;;2.77;2.67;;;23.20;98.30;;;;;;5033141;28;20473;-52
2023/08/11 11:54:29;;;;;;;2.97;2.77;;;23.20;98.20;;;;;;5033270;28;20480;-49
2023/08/11 11:56:58;;;;;;;3.47;2.83;;;23.20;98.30;;;;;;5033224;28;20481;-49
2023/08/11 11:59:26;;;;;;;3.27;3.07;;;23.20;98.30;;;;;;5032986;28;20544;-49
2023/08/11 12:01:53;;;;;;;2.40;2.30;;;23.20;98.40;;;;;;5032904;28;20445;-48
2023/08/11 12:04:20;;;;;;;2.60;2.50;;;23.20;98.30;;;;;;5032688;28;21017;-48
2023/08/11 12:06:47;;;;;;;2.10;2.00;;;23.20;98.30;;;;;;5033019;28;20882;-48
2023/08/11 12:09:14;;;;;;;5.00;2.60;;;23.30;98.30;;;;;;5032778;28;20476;-49
2023/08/11 12:11:41;;;;;;;2.70;2.50;;;23.30;98.20;;;;;;5032578;28;20876;-49
2023/08/11 12:14:12;;;;;;;2.70;2.50;;;23.30;98.20;;;;;;5032617;28;20515;-49
2023/08/11 12:16:39;;;;;;;2.67;2.57;;;23.30;98.20;;;;;;5032736;28;20564;-51
2023/08/11 12:19:07;;;;;;;2.43;2.23;;;23.30;98.20;;;;;;5032707;28;20476;-48
2023/08/11 12:21:34;;;;;;;2.80;2.60;;;23.30;98.20;;;;;;5016698;28;20449;-49
2023/08/11 12:24:00;;;;;;;2.30;2.20;;;23.30;98.20;;;;;;5032624;28;20485;-50
2023/08/11 12:26:28;;;;;;;2.73;2.30;;;23.30;98.20;;;;;;5032489;28;20461;-49
2023/08/11 12:28:55;;;;;;;2.73;2.53;;;23.40;98.20;;;;;;5032500;28;20477;-51
2023/08/11 12:31:23;;;;;;;2.73;2.63;;;23.40;98.20;;;;;;5032240;28;20449;-50
2023/08/11 12:33:50;;;;;;;3.37;3.07;;;23.40;98.20;;;;;;5032420;28;20493;-49
2023/08/11 12:36:17;;;;;;;3.40;3.10;;;23.40;98.10;;;;;;5032206;28;20477;-50
2023/08/11 12:38:44;;;;;;;3.10;2.40;;;23.40;98.10;;;;;;5032347;28;20936;-49
2023/08/11 12:41:11;;;;;;;2.27;2.17;;;23.50;98.10;;;;;;5032085;28;20479;-49
2023/08/11 12:43:37;;;;;;;3.37;3.17;;;23.50;98.00;;;;;;5032149;28;20489;-49
2023/08/11 12:46:04;;;;;;;2.60;2.40;;;23.50;98.10;;;;;;5032218;28;20469;-49
2023/08/11 12:48:32;;;;;;;4.30;2.70;;;23.50;98.00;;;;;;5032100;28;20581;-49
2023/08/11 12:51:01;;;;;;;2.20;2.10;;;23.50;97.90;;;;;;5031946;28;20473;-49